sensor_id;sensor_type;location;lat;lon;timestamp;P1;durP1;ratioP1;P2;durP2;ratioP2
15202;SDS011;7702;51.046;5.184;2022-09-16T00:02:10;2.87;;;1.40;;
15202;SDS011;7702;51.046;5.184;2022-09-16T00:04:36;3.70;;;1.60;;
15202;SDS011;7702;51.046;5.184;2022-09-16T00:07:02;4.40;;;1.80;;
15202;SDS011;7702;51.046;5.184;2022-09-16T00:09:29;6.13;;;2.00;;
15202;SDS011;7702;51.046;5.184;2022-09-16T00:11:55;3.73;;;1.60;;
15202;SDS011;7702;51.046;5.184;2022-09-16T00:14:20;6.53;;;1.90;;
15202;SDS011;7702;51.046;5.184;2022-09-16T00:16:46;4.73;;;1.53;;
15202;SDS011;7702;51.046;5.184;2022-09-16T00:19:12;5.53;;;1.53;;
15202;SDS011;7702;51.046;5.184;2022-09-16T00:21:37;4.70;;;1.80;;
15202;SDS011;7702;51.046;5.184;2022-09-16T00:24:03;4.97;;;1.40;;
15202;SDS011;7702;51.046;5.184;2022-09-16T00:26:29;5.80;;;1.93;;
15202;SDS011;7702;51.046;5.184;2022-09-16T00:28:55;7.73;;;1.87;;
15202;SDS011;7702;51.046;5.184;2022-09-16T00:31:20;3.43;;;1.80;;
15202;SDS011;7702;51.046;5.184;2022-09-16T00:33:46;6.13;;;1.80;;
15202;SDS011;7702;51.046;5.184;2022-09-16T00:36:13;5.63;;;1.60;;
15202;SDS011;7702;51.046;5.184;2022-09-16T00:38:40;4.67;;;1.60;;
15202;SDS011;7702;51.046;5.184;2022-09-16T00:41:07;6.30;;;1.70;;
15202;SDS011;7702;51.046;5.184;2022-09-16T00:46:51;6.83;;;1.87;;
15202;SDS011;7702;51.046;5.184;2022-09-16T00:51:54;8.40;;;1.77;;
15202;SDS011;7702;51.046;5.184;2022-09-16T00:54:24;6.57;;;2.23;;
15202;SDS011;7702;51.046;5.184;2022-09-16T00:56:51;3.47;;;1.57;;
15202;SDS011;7702;51.046;5.184;2022-09-16T00:59:23;5.63;;;1.73;;
15202;SDS011;7702;51.046;5.184;2022-09-16T01:01:52;8.53;;;2.37;;
15202;SDS011;7702;51.046;5.184;2022-09-16T01:04:29;5.70;;;1.80;;
15202;SDS011;7702;51.046;5.184;2022-09-16T01:06:58;3.80;;;2.10;;
15202;SDS011;7702;51.046;5.184;2022-09-16T01:09:25;3.90;;;1.63;;
15202;SDS011;7702;51.046;5.184;2022-09-16T01:11:51;5.17;;;1.80;;
15202;SDS011;7702;51.046;5.184;2022-09-16T01:14:17;2.57;;;1.50;;
15202;SDS011;7702;51.046;5.184;2022-09-16T01:17:09;5.13;;;1.83;;
15202;SDS011;7702;51.046;5.184;2022-09-16T01:30:42;5.37;;;1.50;;
15202;SDS011;7702;51.046;5.184;2022-09-16T01:41:25;5.70;;;1.80;;
15202;SDS011;7702;51.046;5.184;2022-09-16T01:46:28;4.73;;;1.57;;
15202;SDS011;7702;51.046;5.184;2022-09-16T01:52:25;3.87;;;1.40;;
15202;SDS011;7702;51.046;5.184;2022-09-16T01:55:07;5.10;;;1.70;;
15202;SDS011;7702;51.046;5.184;2022-09-16T01:57:45;1.77;;;1.17;;
15202;SDS011;7702;51.046;5.184;2022-09-16T02:00:26;3.80;;;1.60;;
15202;SDS011;7702;51.046;5.184;2022-09-16T02:02:53;5.13;;;1.30;;
15202;SDS011;7702;51.046;5.184;2022-09-16T02:05:28;2.87;;;1.40;;
15202;SDS011;7702;51.046;5.184;2022-09-16T02:08:05;2.53;;;1.00;;
15202;SDS011;7702;51.046;5.184;2022-09-16T02:10:45;5.87;;;1.97;;
15202;SDS011;7702;51.046;5.184;2022-09-16T02:13:20;9.43;;;1.40;;
15202;SDS011;7702;51.046;5.184;2022-09-16T02:15:50;3.13;;;1.30;;
15202;SDS011;7702;51.046;5.184;2022-09-16T02:18:20;6.00;;;1.60;;
15202;SDS011;7702;51.046;5.184;2022-09-16T02:20:48;4.17;;;1.13;;
15202;SDS011;7702;51.046;5.184;2022-09-16T02:23:19;1.77;;;1.30;;
15202;SDS011;7702;51.046;5.184;2022-09-16T02:25:47;4.10;;;1.30;;
15202;SDS011;7702;51.046;5.184;2022-09-16T02:28:20;3.53;;;1.13;;
15202;SDS011;7702;51.046;5.184;2022-09-16T02:30:52;3.30;;;1.13;;
15202;SDS011;7702;51.046;5.184;2022-09-16T02:33:21;5.00;;;1.53;;
15202;SDS011;7702;51.046;5.184;2022-09-16T02:35:48;3.60;;;1.53;;
15202;SDS011;7702;51.046;5.184;2022-09-16T02:38:25;4.70;;;1.67;;
15202;SDS011;7702;51.046;5.184;2022-09-16T02:40:58;4.73;;;1.43;;
15202;SDS011;7702;51.046;5.184;2022-09-16T02:43:25;5.13;;;1.17;;
15202;SDS011;7702;51.046;5.184;2022-09-16T02:46:08;4.83;;;1.50;;
15202;SDS011;7702;51.046;5.184;2022-09-16T02:51:31;4.10;;;1.20;;
15202;SDS011;7702;51.046;5.184;2022-09-16T02:57:00;5.13;;;1.30;;
15202;SDS011;7702;51.046;5.184;2022-09-16T02:59:27;3.60;;;1.23;;
15202;SDS011;7702;51.046;5.184;2022-09-16T03:01:52;5.13;;;1.47;;
15202;SDS011;7702;51.046;5.184;2022-09-16T03:04:19;2.77;;;1.20;;
15202;SDS011;7702;51.046;5.184;2022-09-16T03:06:45;3.47;;;1.07;;
15202;SDS011;7702;51.046;5.184;2022-09-16T03:09:12;3.97;;;1.23;;
15202;SDS011;7702;51.046;5.184;2022-09-16T03:28:22;5.53;;;1.87;;
15202;SDS011;7702;51.046;5.184;2022-09-16T03:31:10;6.43;;;1.20;;
15202;SDS011;7702;51.046;5.184;2022-09-16T03:33:52;5.87;;;1.80;;
15202;SDS011;7702;51.046;5.184;2022-09-16T03:36:52;3.70;;;1.70;;
15202;SDS011;7702;51.046;5.184;2022-09-16T03:39:21;5.33;;;1.47;;
15202;SDS011;7702;51.046;5.184;2022-09-16T03:41:47;3.77;;;1.17;;
15202;SDS011;7702;51.046;5.184;2022-09-16T03:44:13;4.40;;;1.40;;
15202;SDS011;7702;51.046;5.184;2022-09-16T03:46:39;4.10;;;1.67;;
15202;SDS011;7702;51.046;5.184;2022-09-16T03:49:04;3.87;;;1.80;;
15202;SDS011;7702;51.046;5.184;2022-09-16T03:51:30;5.10;;;1.47;;
15202;SDS011;7702;51.046;5.184;2022-09-16T03:53:56;2.23;;;1.27;;
15202;SDS011;7702;51.046;5.184;2022-09-16T03:56:22;2.53;;;1.00;;
15202;SDS011;7702;51.046;5.184;2022-09-16T03:58:48;5.20;;;1.43;;
15202;SDS011;7702;51.046;5.184;2022-09-16T04:01:14;3.53;;;1.40;;
15202;SDS011;7702;51.046;5.184;2022-09-16T04:03:40;4.40;;;1.40;;
15202;SDS011;7702;51.046;5.184;2022-09-16T04:06:06;6.77;;;1.57;;
15202;SDS011;7702;51.046;5.184;2022-09-16T04:08:34;2.93;;;1.60;;
15202;SDS011;7702;51.046;5.184;2022-09-16T04:11:02;7.27;;;1.57;;
15202;SDS011;7702;51.046;5.184;2022-09-16T04:13:32;5.80;;;1.73;;
15202;SDS011;7702;51.046;5.184;2022-09-16T04:15:59;3.97;;;1.30;;
15202;SDS011;7702;51.046;5.184;2022-09-16T04:18:25;5.07;;;1.33;;
15202;SDS011;7702;51.046;5.184;2022-09-16T04:20:55;4.40;;;1.20;;
15202;SDS011;7702;51.046;5.184;2022-09-16T04:23:22;3.30;;;1.07;;
15202;SDS011;7702;51.046;5.184;2022-09-16T04:25:53;5.67;;;1.63;;
15202;SDS011;7702;51.046;5.184;2022-09-16T04:28:22;4.10;;;1.40;;
15202;SDS011;7702;51.046;5.184;2022-09-16T04:30:48;4.23;;;1.63;;
15202;SDS011;7702;51.046;5.184;2022-09-16T04:33:14;2.43;;;1.10;;
15202;SDS011;7702;51.046;5.184;2022-09-16T04:35:39;6.90;;;1.27;;
15202;SDS011;7702;51.046;5.184;2022-09-16T04:38:05;3.63;;;1.30;;
15202;SDS011;7702;51.046;5.184;2022-09-16T04:40:31;4.17;;;1.20;;
15202;SDS011;7702;51.046;5.184;2022-09-16T04:42:57;5.53;;;1.60;;
15202;SDS011;7702;51.046;5.184;2022-09-16T04:45:22;5.50;;;1.40;;
15202;SDS011;7702;51.046;5.184;2022-09-16T04:47:54;8.10;;;1.50;;
15202;SDS011;7702;51.046;5.184;2022-09-16T04:50:21;3.77;;;1.20;;
15202;SDS011;7702;51.046;5.184;2022-09-16T04:52:46;4.67;;;1.50;;
15202;SDS011;7702;51.046;5.184;2022-09-16T04:55:13;4.53;;;1.27;;
15202;SDS011;7702;51.046;5.184;2022-09-16T04:57:38;3.33;;;1.40;;
15202;SDS011;7702;51.046;5.184;2022-09-16T05:00:05;5.40;;;1.40;;
15202;SDS011;7702;51.046;5.184;2022-09-16T05:02:31;4.97;;;1.30;;
15202;SDS011;7702;51.046;5.184;2022-09-16T05:04:57;2.77;;;1.30;;
15202;SDS011;7702;51.046;5.184;2022-09-16T05:07:23;4.57;;;1.30;;
15202;SDS011;7702;51.046;5.184;2022-09-16T05:09:48;3.57;;;1.07;;
15202;SDS011;7702;51.046;5.184;2022-09-16T05:12:14;4.80;;;1.50;;
15202;SDS011;7702;51.046;5.184;2022-09-16T05:14:40;4.73;;;1.50;;
15202;SDS011;7702;51.046;5.184;2022-09-16T05:17:05;3.67;;;1.60;;
15202;SDS011;7702;51.046;5.184;2022-09-16T05:19:31;4.23;;;1.47;;
15202;SDS011;7702;51.046;5.184;2022-09-16T05:21:57;4.60;;;1.20;;
15202;SDS011;7702;51.046;5.184;2022-09-16T05:24:23;4.83;;;1.57;;
15202;SDS011;7702;51.046;5.184;2022-09-16T05:26:48;4.90;;;1.33;;
15202;SDS011;7702;51.046;5.184;2022-09-16T05:29:16;5.53;;;2.27;;
15202;SDS011;7702;51.046;5.184;2022-09-16T05:31:43;4.03;;;1.30;;
15202;SDS011;7702;51.046;5.184;2022-09-16T05:34:21;3.80;;;1.60;;
15202;SDS011;7702;51.046;5.184;2022-09-16T05:36:52;4.73;;;1.57;;
15202;SDS011;7702;51.046;5.184;2022-09-16T05:39:19;4.40;;;1.40;;
15202;SDS011;7702;51.046;5.184;2022-09-16T05:41:45;4.43;;;1.87;;
15202;SDS011;7702;51.046;5.184;2022-09-16T05:44:12;3.17;;;1.23;;
15202;SDS011;7702;51.046;5.184;2022-09-16T05:46:38;2.33;;;1.40;;
15202;SDS011;7702;51.046;5.184;2022-09-16T05:49:05;3.43;;;1.30;;
15202;SDS011;7702;51.046;5.184;2022-09-16T05:51:31;3.03;;;1.10;;
15202;SDS011;7702;51.046;5.184;2022-09-16T05:53:57;3.40;;;1.50;;
15202;SDS011;7702;51.046;5.184;2022-09-16T05:56:25;3.37;;;1.20;;
15202;SDS011;7702;51.046;5.184;2022-09-16T05:58:53;4.20;;;1.17;;
15202;SDS011;7702;51.046;5.184;2022-09-16T06:01:21;2.67;;;1.23;;
15202;SDS011;7702;51.046;5.184;2022-09-16T06:03:48;3.67;;;1.33;;
15202;SDS011;7702;51.046;5.184;2022-09-16T06:06:22;5.13;;;1.20;;
15202;SDS011;7702;51.046;5.184;2022-09-16T06:08:50;2.47;;;1.23;;
15202;SDS011;7702;51.046;5.184;2022-09-16T06:11:17;2.77;;;1.20;;
15202;SDS011;7702;51.046;5.184;2022-09-16T06:13:44;6.03;;;1.63;;
15202;SDS011;7702;51.046;5.184;2022-09-16T06:16:10;4.13;;;1.43;;
15202;SDS011;7702;51.046;5.184;2022-09-16T06:18:38;3.13;;;1.80;;
15202;SDS011;7702;51.046;5.184;2022-09-16T06:21:08;5.57;;;2.00;;
15202;SDS011;7702;51.046;5.184;2022-09-16T06:23:36;3.87;;;1.80;;
15202;SDS011;7702;51.046;5.184;2022-09-16T06:26:07;7.07;;;2.17;;
15202;SDS011;7702;51.046;5.184;2022-09-16T06:28:35;4.90;;;1.80;;
15202;SDS011;7702;51.046;5.184;2022-09-16T06:33:26;5.73;;;2.43;;
15202;SDS011;7702;51.046;5.184;2022-09-16T06:35:52;7.93;;;2.63;;
15202;SDS011;7702;51.046;5.184;2022-09-16T06:38:18;3.53;;;1.93;;
15202;SDS011;7702;51.046;5.184;2022-09-16T06:40:44;6.53;;;2.87;;
15202;SDS011;7702;51.046;5.184;2022-09-16T06:43:09;6.97;;;3.90;;
15202;SDS011;7702;51.046;5.184;2022-09-16T06:45:35;7.67;;;3.27;;
15202;SDS011;7702;51.046;5.184;2022-09-16T06:48:00;3.87;;;2.00;;
15202;SDS011;7702;51.046;5.184;2022-09-16T06:50:27;7.30;;;2.83;;
15202;SDS011;7702;51.046;5.184;2022-09-16T06:52:52;3.50;;;1.90;;
15202;SDS011;7702;51.046;5.184;2022-09-16T06:55:18;5.43;;;1.60;;
15202;SDS011;7702;51.046;5.184;2022-09-16T06:57:44;5.83;;;1.70;;
15202;SDS011;7702;51.046;5.184;2022-09-16T07:00:09;5.03;;;1.70;;
15202;SDS011;7702;51.046;5.184;2022-09-16T07:02:36;3.10;;;1.60;;
15202;SDS011;7702;51.046;5.184;2022-09-16T07:05:02;4.63;;;1.60;;
15202;SDS011;7702;51.046;5.184;2022-09-16T07:07:29;3.27;;;1.47;;
15202;SDS011;7702;51.046;5.184;2022-09-16T07:09:56;3.03;;;1.40;;
15202;SDS011;7702;51.046;5.184;2022-09-16T07:12:22;2.43;;;1.20;;
15202;SDS011;7702;51.046;5.184;2022-09-16T07:14:47;4.37;;;1.20;;
15202;SDS011;7702;51.046;5.184;2022-09-16T07:17:13;2.43;;;1.00;;
15202;SDS011;7702;51.046;5.184;2022-09-16T07:19:38;2.43;;;1.07;;
15202;SDS011;7702;51.046;5.184;2022-09-16T07:22:06;2.07;;;0.73;;
15202;SDS011;7702;51.046;5.184;2022-09-16T07:24:32;3.50;;;1.00;;
15202;SDS011;7702;51.046;5.184;2022-09-16T07:26:58;4.60;;;1.20;;
15202;SDS011;7702;51.046;5.184;2022-09-16T07:29:23;4.63;;;1.10;;
15202;SDS011;7702;51.046;5.184;2022-09-16T07:31:49;2.27;;;0.97;;
15202;SDS011;7702;51.046;5.184;2022-09-16T07:34:15;6.40;;;1.23;;
15202;SDS011;7702;51.046;5.184;2022-09-16T07:36:42;3.93;;;1.00;;
15202;SDS011;7702;51.046;5.184;2022-09-16T07:39:10;2.77;;;1.30;;
15202;SDS011;7702;51.046;5.184;2022-09-16T07:41:38;2.30;;;1.27;;
15202;SDS011;7702;51.046;5.184;2022-09-16T07:44:06;4.57;;;1.00;;
15202;SDS011;7702;51.046;5.184;2022-09-16T07:46:35;3.80;;;1.10;;
15202;SDS011;7702;51.046;5.184;2022-09-16T07:49:02;2.77;;;1.13;;
15202;SDS011;7702;51.046;5.184;2022-09-16T07:51:29;4.57;;;1.27;;
15202;SDS011;7702;51.046;5.184;2022-09-16T07:54:05;3.67;;;1.50;;
15202;SDS011;7702;51.046;5.184;2022-09-16T07:56:34;5.73;;;1.30;;
15202;SDS011;7702;51.046;5.184;2022-09-16T07:59:01;3.83;;;1.30;;
15202;SDS011;7702;51.046;5.184;2022-09-16T08:01:28;5.03;;;1.30;;
15202;SDS011;7702;51.046;5.184;2022-09-16T08:03:58;5.87;;;1.30;;
15202;SDS011;7702;51.046;5.184;2022-09-16T08:06:25;1.60;;;1.10;;
15202;SDS011;7702;51.046;5.184;2022-09-16T08:08:54;5.13;;;1.50;;
15202;SDS011;7702;51.046;5.184;2022-09-16T08:11:20;4.37;;;1.60;;
15202;SDS011;7702;51.046;5.184;2022-09-16T08:13:47;2.53;;;1.50;;
15202;SDS011;7702;51.046;5.184;2022-09-16T08:16:14;2.53;;;1.10;;
15202;SDS011;7702;51.046;5.184;2022-09-16T08:18:42;6.37;;;1.20;;
15202;SDS011;7702;51.046;5.184;2022-09-16T08:21:13;3.40;;;1.33;;
15202;SDS011;7702;51.046;5.184;2022-09-16T08:23:40;2.00;;;0.73;;
15202;SDS011;7702;51.046;5.184;2022-09-16T08:26:06;4.13;;;0.80;;
15202;SDS011;7702;51.046;5.184;2022-09-16T08:28:35;3.00;;;0.97;;
15202;SDS011;7702;51.046;5.184;2022-09-16T08:31:02;4.67;;;1.13;;
15202;SDS011;7702;51.046;5.184;2022-09-16T08:33:28;1.00;;;0.90;;
15202;SDS011;7702;51.046;5.184;2022-09-16T08:36:02;4.33;;;1.20;;
15202;SDS011;7702;51.046;5.184;2022-09-16T08:38:30;3.97;;;1.07;;
15202;SDS011;7702;51.046;5.184;2022-09-16T08:41:00;3.97;;;1.00;;
15202;SDS011;7702;51.046;5.184;2022-09-16T08:43:42;3.07;;;1.10;;
15202;SDS011;7702;51.046;5.184;2022-09-16T08:46:22;4.27;;;0.90;;
15202;SDS011;7702;51.046;5.184;2022-09-16T08:49:16;2.10;;;1.17;;
15202;SDS011;7702;51.046;5.184;2022-09-16T08:51:56;2.40;;;0.60;;
15202;SDS011;7702;51.046;5.184;2022-09-16T08:54:30;3.23;;;0.90;;
15202;SDS011;7702;51.046;5.184;2022-09-16T08:57:01;4.70;;;0.93;;
15202;SDS011;7702;51.046;5.184;2022-09-16T08:59:31;2.87;;;0.60;;
15202;SDS011;7702;51.046;5.184;2022-09-16T09:05:18;5.13;;;1.13;;
15202;SDS011;7702;51.046;5.184;2022-09-16T09:10:48;5.13;;;0.83;;
15202;SDS011;7702;51.046;5.184;2022-09-16T09:16:06;2.93;;;0.93;;
15202;SDS011;7702;51.046;5.184;2022-09-16T09:31:48;1.77;;;0.80;;
15202;SDS011;7702;51.046;5.184;2022-09-16T09:42:04;2.73;;;1.10;;
15202;SDS011;7702;51.046;5.184;2022-09-16T09:47:21;3.17;;;1.00;;
15202;SDS011;7702;51.046;5.184;2022-09-16T09:49:55;2.63;;;1.20;;
15202;SDS011;7702;51.046;5.184;2022-09-16T09:52:27;4.67;;;1.67;;
15202;SDS011;7702;51.046;5.184;2022-09-16T09:55:14;5.37;;;1.20;;
15202;SDS011;7702;51.046;5.184;2022-09-16T09:58:05;5.37;;;1.50;;
15202;SDS011;7702;51.046;5.184;2022-09-16T10:00:33;6.70;;;1.70;;
15202;SDS011;7702;51.046;5.184;2022-09-16T10:03:10;3.60;;;1.50;;
15202;SDS011;7702;51.046;5.184;2022-09-16T10:05:41;3.43;;;1.37;;
15202;SDS011;7702;51.046;5.184;2022-09-16T10:08:32;4.37;;;1.57;;
15202;SDS011;7702;51.046;5.184;2022-09-16T10:10:58;3.63;;;1.37;;
15202;SDS011;7702;51.046;5.184;2022-09-16T10:13:26;2.07;;;1.30;;
15202;SDS011;7702;51.046;5.184;2022-09-16T10:16:04;3.10;;;1.10;;
15202;SDS011;7702;51.046;5.184;2022-09-16T10:18:37;2.00;;;1.00;;
15202;SDS011;7702;51.046;5.184;2022-09-16T10:21:13;2.43;;;1.03;;
15202;SDS011;7702;51.046;5.184;2022-09-16T10:23:40;3.30;;;1.10;;
15202;SDS011;7702;51.046;5.184;2022-09-16T10:31:47;1.20;;;0.53;;
15202;SDS011;7702;51.046;5.184;2022-09-16T10:39:38;4.33;;;2.07;;
15202;SDS011;7702;51.046;5.184;2022-09-16T10:42:44;2.50;;;1.00;;
15202;SDS011;7702;51.046;5.184;2022-09-16T10:45:12;3.43;;;1.03;;
15202;SDS011;7702;51.046;5.184;2022-09-16T10:47:50;3.53;;;1.30;;
15202;SDS011;7702;51.046;5.184;2022-09-16T10:50:29;1.37;;;0.70;;
15202;SDS011;7702;51.046;5.184;2022-09-16T10:52:55;3.03;;;1.00;;
15202;SDS011;7702;51.046;5.184;2022-09-16T10:55:25;4.30;;;1.03;;
15202;SDS011;7702;51.046;5.184;2022-09-16T10:58:05;1.47;;;0.87;;
15202;SDS011;7702;51.046;5.184;2022-09-16T11:00:34;2.17;;;0.90;;
15202;SDS011;7702;51.046;5.184;2022-09-16T11:05:51;2.67;;;0.90;;
15202;SDS011;7702;51.046;5.184;2022-09-16T11:11:43;4.50;;;1.23;;
15202;SDS011;7702;51.046;5.184;2022-09-16T11:26:33;6.13;;;1.10;;
15202;SDS011;7702;51.046;5.184;2022-09-16T11:34:55;3.13;;;0.60;;
15202;SDS011;7702;51.046;5.184;2022-09-16T11:37:41;1.40;;;0.40;;
15202;SDS011;7702;51.046;5.184;2022-09-16T11:40:42;1.80;;;0.57;;
15202;SDS011;7702;51.046;5.184;2022-09-16T11:45:57;4.10;;;0.87;;
15202;SDS011;7702;51.046;5.184;2022-09-16T11:56:36;3.60;;;0.90;;
15202;SDS011;7702;51.046;5.184;2022-09-16T12:01:49;4.40;;;0.60;;
15202;SDS011;7702;51.046;5.184;2022-09-16T12:04:25;3.20;;;0.77;;
15202;SDS011;7702;51.046;5.184;2022-09-16T12:07:06;2.33;;;1.13;;
15202;SDS011;7702;51.046;5.184;2022-09-16T12:09:51;2.80;;;0.60;;
15202;SDS011;7702;51.046;5.184;2022-09-16T12:12:23;1.33;;;0.50;;
15202;SDS011;7702;51.046;5.184;2022-09-16T12:14:55;4.90;;;0.50;;
15202;SDS011;7702;51.046;5.184;2022-09-16T12:17:35;2.40;;;0.73;;
15202;SDS011;7702;51.046;5.184;2022-09-16T12:20:16;2.33;;;0.70;;
15202;SDS011;7702;51.046;5.184;2022-09-16T12:22:50;1.67;;;0.47;;
15202;SDS011;7702;51.046;5.184;2022-09-16T12:25:27;1.70;;;0.53;;
15202;SDS011;7702;51.046;5.184;2022-09-16T12:30:36;0.80;;;0.50;;
15202;SDS011;7702;51.046;5.184;2022-09-16T12:38:23;3.43;;;0.60;;
15202;SDS011;7702;51.046;5.184;2022-09-16T12:43:43;1.70;;;0.30;;
15202;SDS011;7702;51.046;5.184;2022-09-16T13:00:48;2.63;;;1.53;;
15202;SDS011;7702;51.046;5.184;2022-09-16T13:03:24;1.63;;;0.43;;
15202;SDS011;7702;51.046;5.184;2022-09-16T13:05:52;1.70;;;0.80;;
15202;SDS011;7702;51.046;5.184;2022-09-16T13:08:22;3.23;;;0.50;;
15202;SDS011;7702;51.046;5.184;2022-09-16T13:11:04;0.83;;;0.53;;
15202;SDS011;7702;51.046;5.184;2022-09-16T13:13:42;1.67;;;0.50;;
15202;SDS011;7702;51.046;5.184;2022-09-16T13:16:12;1.97;;;0.47;;
15202;SDS011;7702;51.046;5.184;2022-09-16T13:23:40;3.53;;;0.90;;
15202;SDS011;7702;51.046;5.184;2022-09-16T13:26:09;2.73;;;1.77;;
15202;SDS011;7702;51.046;5.184;2022-09-16T13:28:36;1.93;;;0.77;;
15202;SDS011;7702;51.046;5.184;2022-09-16T13:31:28;1.83;;;0.97;;
15202;SDS011;7702;51.046;5.184;2022-09-16T13:38:56;3.30;;;1.40;;
15202;SDS011;7702;51.046;5.184;2022-09-16T13:44:24;2.13;;;0.40;;
15202;SDS011;7702;51.046;5.184;2022-09-16T13:49:40;1.27;;;0.80;;
15202;SDS011;7702;51.046;5.184;2022-09-16T13:52:28;0.30;;;0.30;;
15202;SDS011;7702;51.046;5.184;2022-09-16T13:54:56;1.47;;;0.30;;
15202;SDS011;7702;51.046;5.184;2022-09-16T14:00:18;1.87;;;0.90;;
15202;SDS011;7702;51.046;5.184;2022-09-16T14:05:44;1.07;;;0.60;;
15202;SDS011;7702;51.046;5.184;2022-09-16T14:11:21;2.07;;;0.60;;
15202;SDS011;7702;51.046;5.184;2022-09-16T14:14:02;0.60;;;0.60;;
15202;SDS011;7702;51.046;5.184;2022-09-16T14:16:32;1.43;;;0.60;;
15202;SDS011;7702;51.046;5.184;2022-09-16T14:21:43;1.23;;;0.80;;
15202;SDS011;7702;51.046;5.184;2022-09-16T14:26:51;1.37;;;0.60;;
15202;SDS011;7702;51.046;5.184;2022-09-16T14:29:21;3.13;;;1.00;;
15202;SDS011;7702;51.046;5.184;2022-09-16T14:31:48;1.20;;;0.40;;
15202;SDS011;7702;51.046;5.184;2022-09-16T14:34:27;3.23;;;0.90;;
15202;SDS011;7702;51.046;5.184;2022-09-16T14:36:57;1.50;;;0.40;;
15202;SDS011;7702;51.046;5.184;2022-09-16T14:39:24;2.73;;;0.53;;
15202;SDS011;7702;51.046;5.184;2022-09-16T14:41:53;3.73;;;0.80;;
15202;SDS011;7702;51.046;5.184;2022-09-16T14:44:32;0.43;;;0.37;;
15202;SDS011;7702;51.046;5.184;2022-09-16T14:49:56;3.47;;;0.90;;
15202;SDS011;7702;51.046;5.184;2022-09-16T14:52:53;7.60;;;1.00;;
15202;SDS011;7702;51.046;5.184;2022-09-16T14:55:21;1.27;;;0.60;;
15202;SDS011;7702;51.046;5.184;2022-09-16T14:57:49;5.37;;;1.20;;
15202;SDS011;7702;51.046;5.184;2022-09-16T15:00:15;1.10;;;0.60;;
15202;SDS011;7702;51.046;5.184;2022-09-16T15:02:51;4.87;;;1.17;;
15202;SDS011;7702;51.046;5.184;2022-09-16T15:05:37;2.37;;;0.70;;
15202;SDS011;7702;51.046;5.184;2022-09-16T15:10:58;1.53;;;0.73;;
15202;SDS011;7702;51.046;5.184;2022-09-16T15:13:29;2.07;;;0.97;;
15202;SDS011;7702;51.046;5.184;2022-09-16T15:16:01;1.67;;;1.13;;
15202;SDS011;7702;51.046;5.184;2022-09-16T15:18:55;3.37;;;1.53;;
15202;SDS011;7702;51.046;5.184;2022-09-16T15:21:24;5.37;;;1.47;;
15202;SDS011;7702;51.046;5.184;2022-09-16T15:23:57;5.40;;;1.17;;
15202;SDS011;7702;51.046;5.184;2022-09-16T15:26:30;7.70;;;1.50;;
15202;SDS011;7702;51.046;5.184;2022-09-16T15:29:10;2.73;;;1.47;;
15202;SDS011;7702;51.046;5.184;2022-09-16T15:31:51;4.40;;;1.90;;
15202;SDS011;7702;51.046;5.184;2022-09-16T15:36:43;6.50;;;3.43;;
15202;SDS011;7702;51.046;5.184;2022-09-16T15:44:33;5.03;;;1.43;;
15202;SDS011;7702;51.046;5.184;2022-09-16T15:46:59;4.57;;;1.30;;
15202;SDS011;7702;51.046;5.184;2022-09-16T15:49:26;2.97;;;1.50;;
15202;SDS011;7702;51.046;5.184;2022-09-16T15:51:54;2.40;;;0.90;;
15202;SDS011;7702;51.046;5.184;2022-09-16T15:54:28;3.60;;;0.60;;
15202;SDS011;7702;51.046;5.184;2022-09-16T15:57:29;1.63;;;0.83;;
15202;SDS011;7702;51.046;5.184;2022-09-16T16:00:09;3.27;;;1.17;;
15202;SDS011;7702;51.046;5.184;2022-09-16T16:02:42;3.37;;;0.80;;
15202;SDS011;7702;51.046;5.184;2022-09-16T16:05:19;5.47;;;1.10;;
15202;SDS011;7702;51.046;5.184;2022-09-16T16:10:26;1.97;;;0.70;;
15202;SDS011;7702;51.046;5.184;2022-09-16T16:12:59;2.70;;;1.30;;
15202;SDS011;7702;51.046;5.184;2022-09-16T16:15:35;3.03;;;0.67;;
15202;SDS011;7702;51.046;5.184;2022-09-16T16:18:04;0.57;;;0.50;;
15202;SDS011;7702;51.046;5.184;2022-09-16T16:20:31;1.73;;;0.80;;
15202;SDS011;7702;51.046;5.184;2022-09-16T16:22:58;5.60;;;1.13;;
15202;SDS011;7702;51.046;5.184;2022-09-16T16:25:25;3.87;;;1.07;;
15202;SDS011;7702;51.046;5.184;2022-09-16T16:27:51;4.10;;;0.50;;
15202;SDS011;7702;51.046;5.184;2022-09-16T16:30:16;2.43;;;0.73;;
15202;SDS011;7702;51.046;5.184;2022-09-16T16:32:43;2.93;;;0.87;;
15202;SDS011;7702;51.046;5.184;2022-09-16T16:35:09;5.87;;;0.80;;
15202;SDS011;7702;51.046;5.184;2022-09-16T16:37:34;2.93;;;0.57;;
15202;SDS011;7702;51.046;5.184;2022-09-16T16:40:01;5.00;;;0.70;;
15202;SDS011;7702;51.046;5.184;2022-09-16T16:42:27;5.63;;;1.03;;
15202;SDS011;7702;51.046;5.184;2022-09-16T16:44:53;2.23;;;0.77;;
15202;SDS011;7702;51.046;5.184;2022-09-16T16:47:20;4.03;;;1.57;;
15202;SDS011;7702;51.046;5.184;2022-09-16T16:49:47;3.23;;;0.73;;
15202;SDS011;7702;51.046;5.184;2022-09-16T16:52:14;2.93;;;0.60;;
15202;SDS011;7702;51.046;5.184;2022-09-16T16:54:39;2.60;;;0.70;;
15202;SDS011;7702;51.046;5.184;2022-09-16T16:57:07;2.83;;;0.60;;
15202;SDS011;7702;51.046;5.184;2022-09-16T16:59:33;5.53;;;1.00;;
15202;SDS011;7702;51.046;5.184;2022-09-16T17:01:59;2.93;;;0.67;;
15202;SDS011;7702;51.046;5.184;2022-09-16T17:04:25;2.63;;;0.60;;
15202;SDS011;7702;51.046;5.184;2022-09-16T17:06:51;1.13;;;0.60;;
15202;SDS011;7702;51.046;5.184;2022-09-16T17:09:16;2.47;;;1.07;;
15202;SDS011;7702;51.046;5.184;2022-09-16T17:11:50;2.40;;;0.70;;
15202;SDS011;7702;51.046;5.184;2022-09-16T17:14:20;2.90;;;0.90;;
15202;SDS011;7702;51.046;5.184;2022-09-16T17:16:47;2.37;;;0.70;;
15202;SDS011;7702;51.046;5.184;2022-09-16T17:19:14;3.30;;;0.97;;
15202;SDS011;7702;51.046;5.184;2022-09-16T17:21:41;3.93;;;0.97;;
15202;SDS011;7702;51.046;5.184;2022-09-16T17:24:08;1.73;;;0.80;;
15202;SDS011;7702;51.046;5.184;2022-09-16T17:26:34;4.87;;;1.50;;
15202;SDS011;7702;51.046;5.184;2022-09-16T17:29:00;3.03;;;0.97;;
15202;SDS011;7702;51.046;5.184;2022-09-16T17:31:28;6.70;;;1.40;;
15202;SDS011;7702;51.046;5.184;2022-09-16T17:33:57;4.53;;;1.33;;
15202;SDS011;7702;51.046;5.184;2022-09-16T17:36:27;5.67;;;1.17;;
15202;SDS011;7702;51.046;5.184;2022-09-16T17:38:54;5.13;;;1.20;;
15202;SDS011;7702;51.046;5.184;2022-09-16T17:41:21;6.20;;;1.30;;
15202;SDS011;7702;51.046;5.184;2022-09-16T17:43:47;3.97;;;1.23;;
15202;SDS011;7702;51.046;5.184;2022-09-16T17:46:16;2.93;;;0.83;;
15202;SDS011;7702;51.046;5.184;2022-09-16T17:48:44;4.00;;;1.30;;
15202;SDS011;7702;51.046;5.184;2022-09-16T17:51:11;3.80;;;1.40;;
15202;SDS011;7702;51.046;5.184;2022-09-16T17:53:37;3.53;;;1.30;;
15202;SDS011;7702;51.046;5.184;2022-09-16T17:56:07;4.10;;;1.53;;
15202;SDS011;7702;51.046;5.184;2022-09-16T17:58:35;4.43;;;1.07;;
15202;SDS011;7702;51.046;5.184;2022-09-16T18:01:03;3.83;;;1.13;;
15202;SDS011;7702;51.046;5.184;2022-09-16T18:03:33;5.00;;;1.43;;
15202;SDS011;7702;51.046;5.184;2022-09-16T18:06:03;3.30;;;1.40;;
15202;SDS011;7702;51.046;5.184;2022-09-16T18:08:29;5.73;;;1.93;;
15202;SDS011;7702;51.046;5.184;2022-09-16T18:10:55;2.40;;;1.10;;
15202;SDS011;7702;51.046;5.184;2022-09-16T18:13:20;4.90;;;1.40;;
15202;SDS011;7702;51.046;5.184;2022-09-16T18:15:46;5.13;;;1.50;;
15202;SDS011;7702;51.046;5.184;2022-09-16T18:18:11;4.17;;;1.40;;
15202;SDS011;7702;51.046;5.184;2022-09-16T18:20:38;2.93;;;1.07;;
15202;SDS011;7702;51.046;5.184;2022-09-16T18:23:04;4.60;;;1.53;;
15202;SDS011;7702;51.046;5.184;2022-09-16T18:25:30;4.33;;;1.10;;
15202;SDS011;7702;51.046;5.184;2022-09-16T18:27:56;3.77;;;1.47;;
15202;SDS011;7702;51.046;5.184;2022-09-16T18:30:21;5.73;;;1.60;;
15202;SDS011;7702;51.046;5.184;2022-09-16T18:32:49;3.33;;;1.00;;
15202;SDS011;7702;51.046;5.184;2022-09-16T18:35:14;4.90;;;1.57;;
15202;SDS011;7702;51.046;5.184;2022-09-16T18:37:40;3.07;;;1.20;;
15202;SDS011;7702;51.046;5.184;2022-09-16T18:40:06;2.73;;;0.90;;
15202;SDS011;7702;51.046;5.184;2022-09-16T18:42:32;1.73;;;0.80;;
15202;SDS011;7702;51.046;5.184;2022-09-16T18:44:58;1.13;;;0.70;;
15202;SDS011;7702;51.046;5.184;2022-09-16T18:47:23;2.93;;;0.80;;